createdAt,value
2022-10-16T00:01:39.470Z,18.48
2022-10-16T00:04:06.450Z,18.55
2022-10-16T00:06:33.580Z,19.92
2022-10-16T00:09:00.818Z,18.75
2022-10-16T00:11:37.678Z,16.85
2022-10-16T00:14:09.010Z,16.38
2022-10-16T00:16:36.278Z,16.77
2022-10-16T00:19:03.833Z,15.77
2022-10-16T00:21:32.632Z,14.30
2022-10-16T00:24:07.444Z,13.93
2022-10-16T00:26:36.220Z,14.88
2022-10-16T00:29:03.930Z,13.93
2022-10-16T00:31:31.242Z,14.30
2022-10-16T00:33:58.688Z,18.10
2022-10-16T00:36:27.270Z,18.48
2022-10-16T00:38:57.217Z,13.13
2022-10-16T00:41:25.977Z,14.50
2022-10-16T00:44:24.537Z,15.50
2022-10-16T00:46:52.112Z,14.13
2022-10-16T00:49:21.734Z,14.10
2022-10-16T00:51:54.752Z,14.30
2022-10-16T00:54:31.029Z,12.75
2022-10-16T00:57:02.169Z,13.68
2022-10-16T00:59:37.068Z,15.00
2022-10-16T01:02:06.702Z,13.38
2022-10-16T01:04:41.372Z,17.13
2022-10-16T01:07:25.687Z,13.35
2022-10-16T01:10:10.706Z,17.30
2022-10-16T01:12:52.028Z,16.77
2022-10-16T01:15:33.839Z,16.77
2022-10-16T01:18:28.675Z,17.80
2022-10-16T01:21:05.271Z,17.38
2022-10-16T01:24:13.080Z,16.48
2022-10-16T01:27:17.298Z,24.45
2022-10-16T01:30:18.425Z,19.77
2022-10-16T01:33:16.863Z,17.85
2022-10-16T01:35:51.163Z,19.30
2022-10-16T01:38:26.907Z,16.50
2022-10-16T01:41:10.545Z,16.60
2022-10-16T01:44:26.150Z,16.50
2022-10-16T01:46:55.136Z,22.92
2022-10-16T01:49:25.646Z,19.80
2022-10-16T01:51:58.755Z,20.02
2022-10-16T01:54:30.251Z,17.92
2022-10-16T01:56:59.128Z,17.05
2022-10-16T01:59:30.650Z,16.50
2022-10-16T02:02:02.650Z,19.90
2022-10-16T02:04:35.552Z,18.00
2022-10-16T02:07:02.935Z,20.35
2022-10-16T02:09:31.901Z,19.02
2022-10-16T02:12:04.545Z,23.92
2022-10-16T02:14:32.181Z,20.75
2022-10-16T02:16:59.128Z,21.70
2022-10-16T02:19:26.313Z,19.15
2022-10-16T02:22:01.024Z,19.95
2022-10-16T02:25:07.302Z,27.90
2022-10-16T02:27:36.753Z,24.10
2022-10-16T02:30:19.374Z,21.63
2022-10-16T02:32:49.810Z,20.27
2022-10-16T02:35:20.246Z,21.98
2022-10-16T02:37:50.231Z,23.17
2022-10-16T02:40:21.506Z,21.40
2022-10-16T02:42:54.150Z,23.95
2022-10-16T02:45:21.491Z,19.08
2022-10-16T02:47:48.423Z,24.00
2022-10-16T02:50:16.218Z,24.30
2022-10-16T02:52:43.612Z,23.10
2022-10-16T02:55:10.562Z,19.95
2022-10-16T02:57:38.217Z,22.92
2022-10-16T03:00:07.782Z,18.60
2022-10-16T03:02:34.799Z,21.50
2022-10-16T03:05:01.977Z,21.40
2022-10-16T03:07:29.081Z,22.17
2022-10-16T03:09:56.513Z,21.77
2022-10-16T03:12:23.478Z,19.83
2022-10-16T03:14:50.400Z,23.10
2022-10-16T03:17:17.877Z,18.83
2022-10-16T03:19:44.893Z,22.55
2022-10-16T03:22:11.930Z,20.13
2022-10-16T03:24:38.855Z,21.38
2022-10-16T03:27:05.791Z,23.00
2022-10-16T03:29:33.912Z,19.83
2022-10-16T03:32:01.279Z,21.77
2022-10-16T03:34:28.927Z,24.35
2022-10-16T03:36:55.844Z,21.52
2022-10-16T03:39:22.799Z,21.75
2022-10-16T03:41:49.758Z,21.55
2022-10-16T03:44:16.718Z,22.50
2022-10-16T03:46:43.656Z,20.20
2022-10-16T03:49:10.628Z,23.00
2022-10-16T03:51:37.654Z,24.85
2022-10-16T03:54:04.602Z,20.90
2022-10-16T03:56:31.620Z,19.95
2022-10-16T03:58:58.549Z,20.42
2022-10-16T04:01:25.770Z,21.75
2022-10-16T04:03:52.736Z,23.98
2022-10-16T04:06:19.660Z,21.02
2022-10-16T04:08:46.945Z,21.70
2022-10-16T04:11:14.107Z,19.48
2022-10-16T04:13:41.081Z,23.38
2022-10-16T04:16:08.166Z,21.92
2022-10-16T04:18:36.200Z,22.42
2022-10-16T04:21:07.822Z,19.65
2022-10-16T04:23:35.089Z,20.77
2022-10-16T04:26:02.210Z,25.63
2022-10-16T04:28:29.487Z,26.95
2022-10-16T04:30:56.827Z,22.20
2022-10-16T04:33:23.768Z,25.48
2022-10-16T04:35:58.898Z,24.58
2022-10-16T04:38:26.310Z,19.95
2022-10-16T04:40:53.881Z,32.47
2022-10-16T04:43:21.714Z,21.10
2022-10-16T04:45:48.786Z,24.48
2022-10-16T04:48:15.747Z,18.85
2022-10-16T04:50:42.669Z,20.67
2022-10-16T04:53:09.611Z,20.48
2022-10-16T04:55:36.589Z,20.38
2022-10-16T04:58:03.631Z,22.00
2022-10-16T05:00:30.789Z,21.85
2022-10-16T05:03:00.490Z,26.00
2022-10-16T05:05:28.379Z,22.77
2022-10-16T05:07:55.386Z,19.25
2022-10-16T05:10:22.316Z,22.63
2022-10-16T05:12:49.278Z,19.17
2022-10-16T05:15:16.399Z,27.17
2022-10-16T05:17:44.740Z,18.35
2022-10-16T05:20:13.309Z,19.63
2022-10-16T05:22:40.254Z,21.95
2022-10-16T05:25:07.699Z,17.90
2022-10-16T05:27:34.722Z,21.58
2022-10-16T05:30:01.689Z,24.58
2022-10-16T05:32:28.641Z,21.02
2022-10-16T05:34:55.621Z,20.63
2022-10-16T05:37:22.636Z,19.88
2022-10-16T05:39:49.572Z,20.63
2022-10-16T05:42:16.587Z,26.83
2022-10-16T05:44:43.557Z,18.90
2022-10-16T05:47:11.756Z,21.95
2022-10-16T05:49:41.295Z,22.40
2022-10-16T05:52:08.677Z,20.08
2022-10-16T05:54:35.597Z,20.00
2022-10-16T05:57:03.182Z,23.25
2022-10-16T05:59:30.078Z,19.92
2022-10-16T06:01:57.051Z,21.40
2022-10-16T06:04:24.147Z,20.75
2022-10-16T06:06:51.207Z,20.15
2022-10-16T06:09:18.132Z,21.35
2022-10-16T06:11:45.101Z,19.92
2022-10-16T06:14:12.029Z,18.58
2022-10-16T06:16:39.284Z,19.02
2022-10-16T06:19:09.195Z,24.05
2022-10-16T06:21:36.343Z,25.35
2022-10-16T06:24:03.445Z,27.83
2022-10-16T06:26:32.370Z,22.25
2022-10-16T06:29:00.944Z,22.35
2022-10-16T06:31:31.812Z,17.52
2022-10-16T06:33:59.268Z,22.13
2022-10-16T06:36:27.081Z,33.33
2022-10-16T06:38:54.299Z,19.77
2022-10-16T06:41:23.642Z,23.52
2022-10-16T06:43:50.967Z,18.60
2022-10-16T06:46:22.576Z,22.02
2022-10-16T06:48:49.640Z,21.52
2022-10-16T06:51:24.049Z,18.27
2022-10-16T06:54:03.413Z,22.77
2022-10-16T06:56:32.882Z,16.67
2022-10-16T06:59:00.535Z,18.48
2022-10-16T07:01:28.978Z,16.48
2022-10-16T07:03:55.966Z,16.35
2022-10-16T07:06:25.297Z,15.98
2022-10-16T07:08:52.896Z,19.42
2022-10-16T07:11:24.480Z,25.45
2022-10-16T07:13:55.928Z,18.15
2022-10-16T07:16:29.569Z,21.92
2022-10-16T07:19:01.926Z,20.85
2022-10-16T07:21:36.226Z,16.52
2022-10-16T07:24:04.922Z,20.33
2022-10-16T07:26:35.019Z,19.73
2022-10-16T07:29:02.282Z,18.77
2022-10-16T07:31:29.527Z,19.67
2022-10-16T07:33:58.777Z,17.88
2022-10-16T07:36:25.815Z,21.50
2022-10-16T07:38:55.456Z,15.35
2022-10-16T07:41:25.681Z,18.02
2022-10-16T07:43:55.473Z,22.25
2022-10-16T07:46:23.755Z,17.80
2022-10-16T07:48:51.499Z,22.75
2022-10-16T07:51:24.835Z,19.52
2022-10-16T07:53:52.839Z,20.75
2022-10-16T07:56:21.822Z,15.98
2022-10-16T07:58:50.786Z,15.73
2022-10-16T08:01:19.260Z,17.65
2022-10-16T08:03:49.537Z,19.15
2022-10-16T08:06:19.747Z,18.20
2022-10-16T08:08:49.085Z,21.02
2022-10-16T08:11:16.151Z,16.15
2022-10-16T08:13:43.570Z,31.60
2022-10-16T08:16:10.938Z,21.20
2022-10-16T08:18:40.879Z,18.98
2022-10-16T08:21:21.791Z,21.00
2022-10-16T08:23:54.472Z,18.20
2022-10-16T08:26:24.314Z,17.10
2022-10-16T08:28:52.994Z,20.10
2022-10-16T08:31:21.102Z,17.75
2022-10-16T08:33:48.823Z,12.75
2022-10-16T08:36:17.475Z,17.85
2022-10-16T08:38:44.976Z,15.10
2022-10-16T08:41:19.084Z,22.30
2022-10-16T08:44:14.880Z,15.15
2022-10-16T08:47:22.015Z,13.93
2022-10-16T08:50:04.156Z,14.77
2022-10-16T08:52:36.455Z,13.88
2022-10-16T08:55:05.842Z,15.88
2022-10-16T08:57:33.658Z,14.20
2022-10-16T09:00:14.010Z,15.57
2022-10-16T09:03:23.293Z,16.30
2022-10-16T09:06:26.247Z,15.07
2022-10-16T09:09:28.413Z,13.95
2022-10-16T09:12:16.067Z,16.38
2022-10-16T09:15:06.398Z,12.77
2022-10-16T09:17:36.303Z,13.88
2022-10-16T09:20:27.221Z,17.13
2022-10-16T09:23:17.292Z,14.63
2022-10-16T09:25:49.353Z,15.40
2022-10-16T09:28:18.448Z,14.73
2022-10-16T09:30:46.920Z,12.45
2022-10-16T09:33:15.843Z,13.63
2022-10-16T09:35:51.762Z,13.10
2022-10-16T09:38:35.349Z,15.45
2022-10-16T09:41:17.596Z,12.00
2022-10-16T09:43:59.464Z,13.65
2022-10-16T09:46:36.944Z,15.07
2022-10-16T09:49:20.066Z,16.05
2022-10-16T09:51:47.188Z,16.38
2022-10-16T09:54:21.405Z,12.40
2022-10-16T09:56:54.806Z,17.77
2022-10-16T09:59:27.704Z,12.38
2022-10-16T10:01:56.261Z,11.52
2022-10-16T10:04:26.998Z,15.32
2022-10-16T10:06:56.674Z,13.20
2022-10-16T10:09:45.403Z,11.23
2022-10-16T10:12:26.840Z,14.60
2022-10-16T10:14:58.086Z,9.98
2022-10-16T10:17:29.739Z,13.32
2022-10-16T10:20:23.858Z,18.77
2022-10-16T10:22:50.876Z,12.80
2022-10-16T10:25:39.502Z,12.48
2022-10-16T10:28:50.493Z,12.02
2022-10-16T10:32:07.490Z,13.20
2022-10-16T10:35:21.578Z,14.65
2022-10-16T10:38:33.680Z,9.60
2022-10-16T10:41:31.321Z,14.98
2022-10-16T10:44:35.083Z,15.68
2022-10-16T10:47:29.835Z,11.73
2022-10-16T10:50:23.965Z,14.48
2022-10-16T10:53:13.551Z,12.43
2022-10-16T10:56:22.150Z,13.60
2022-10-16T10:59:10.600Z,13.75
2022-10-16T11:02:19.015Z,14.40
2022-10-16T11:05:16.558Z,16.33
2022-10-16T11:08:17.074Z,14.77
2022-10-16T11:10:58.730Z,13.15
2022-10-16T11:13:59.309Z,13.30
2022-10-16T11:16:46.920Z,10.77
2022-10-16T11:19:29.339Z,10.10
2022-10-16T11:22:01.408Z,14.18
2022-10-16T11:25:03.935Z,17.25
2022-10-16T11:27:54.791Z,18.02
2022-10-16T11:30:47.978Z,15.07
2022-10-16T11:33:36.215Z,13.35
2022-10-16T11:36:29.833Z,11.95
2022-10-16T11:39:07.831Z,17.48
2022-10-16T11:41:43.236Z,12.38
2022-10-16T11:44:43.351Z,12.55
2022-10-16T11:50:47.371Z,10.32
2022-10-16T11:53:25.857Z,14.15
2022-10-16T11:55:53.047Z,10.45
2022-10-16T11:58:34.366Z,10.80
2022-10-16T12:01:10.442Z,10.60
2022-10-16T12:03:59.513Z,12.52
2022-10-16T12:06:58.863Z,12.25
2022-10-16T12:09:30.658Z,13.25
2022-10-16T12:11:58.306Z,16.45
2022-10-16T12:14:42.957Z,12.43
2022-10-16T12:17:21.771Z,10.07
2022-10-16T12:20:13.331Z,13.82
2022-10-16T12:23:05.595Z,9.15
2022-10-16T12:25:47.674Z,16.58
2022-10-16T12:28:17.382Z,15.50
2022-10-16T12:30:53.925Z,12.35
2022-10-16T12:33:27.297Z,16.25
2022-10-16T12:35:55.189Z,12.43
2022-10-16T12:38:50.202Z,11.70
2022-10-16T12:41:31.747Z,9.95
2022-10-16T12:44:04.477Z,18.85
2022-10-16T12:46:31.287Z,9.18
2022-10-16T12:49:30.040Z,11.55
2022-10-16T12:51:58.179Z,11.25
2022-10-16T12:54:37.272Z,11.13
2022-10-16T12:57:24.590Z,11.27
2022-10-16T13:00:27.640Z,12.63
2022-10-16T13:03:21.682Z,12.07
2022-10-16T13:06:06.571Z,10.43
2022-10-16T13:09:13.203Z,16.23
2022-10-16T13:11:52.903Z,13.82
2022-10-16T13:15:17.805Z,10.27
2022-10-16T13:18:03.406Z,11.63
2022-10-16T13:20:54.793Z,12.32
2022-10-16T13:23:37.309Z,16.27
2022-10-16T13:26:15.271Z,11.63
2022-10-16T13:28:42.338Z,15.38
2022-10-16T13:31:21.412Z,18.05
2022-10-16T13:33:56.007Z,11.23
2022-10-16T13:36:29.160Z,12.60
2022-10-16T13:39:21.979Z,13.25
2022-10-16T13:42:03.512Z,12.50
2022-10-16T13:44:49.635Z,13.65
2022-10-16T13:47:26.268Z,9.77
2022-10-16T13:50:15.432Z,11.25
2022-10-16T13:52:42.572Z,14.10
2022-10-16T13:55:18.881Z,14.40
2022-10-16T13:57:46.500Z,13.85
2022-10-16T14:00:19.605Z,15.30
2022-10-16T14:02:52.246Z,10.98
2022-10-16T14:05:19.199Z,11.63
2022-10-16T14:07:52.642Z,13.57
2022-10-16T14:10:33.697Z,13.60
2022-10-16T14:13:09.287Z,11.95
2022-10-16T14:15:37.723Z,16.63
2022-10-16T14:18:05.343Z,8.85
2022-10-16T14:20:35.259Z,12.73
2022-10-16T14:23:20.160Z,12.90
2022-10-16T14:25:47.656Z,14.10
2022-10-16T14:28:14.476Z,14.50
2022-10-16T14:30:55.990Z,15.25
2022-10-16T14:33:34.720Z,9.80
2022-10-16T14:36:10.505Z,13.23
2022-10-16T14:38:40.345Z,13.75
2022-10-16T14:41:08.013Z,10.65
2022-10-16T14:43:41.111Z,11.88
2022-10-16T14:46:15.252Z,14.48
2022-10-16T14:48:50.801Z,11.10
2022-10-16T14:51:20.796Z,11.82
2022-10-16T14:53:48.208Z,12.73
2022-10-16T14:56:22.061Z,10.90
2022-10-16T14:58:50.828Z,14.10
2022-10-16T15:01:18.168Z,18.02
2022-10-16T15:03:45.913Z,11.00
2022-10-16T15:06:14.664Z,9.65
2022-10-16T15:08:42.425Z,9.90
2022-10-16T15:11:18.981Z,10.98
2022-10-16T15:13:47.382Z,10.98
2022-10-16T15:16:17.368Z,12.57
2022-10-16T15:18:44.772Z,15.05
2022-10-16T15:21:28.601Z,16.95
2022-10-16T15:23:57.497Z,11.43
2022-10-16T15:26:29.512Z,17.17
2022-10-16T15:28:57.329Z,14.57
2022-10-16T15:31:25.170Z,13.25
2022-10-16T15:33:57.147Z,14.98
2022-10-16T15:36:29.720Z,13.68
2022-10-16T15:38:57.081Z,13.85
2022-10-16T15:41:24.280Z,12.57
2022-10-16T15:43:51.829Z,17.33
2022-10-16T15:46:24.159Z,13.63
2022-10-16T15:48:52.405Z,16.23
2022-10-16T15:51:19.790Z,11.02
2022-10-16T15:53:47.512Z,16.17
2022-10-16T15:56:15.482Z,15.52
2022-10-16T15:58:42.776Z,12.88
2022-10-16T16:01:11.494Z,13.05
2022-10-16T16:03:41.579Z,16.15
2022-10-16T16:06:11.834Z,13.98
2022-10-16T16:08:39.891Z,13.20
2022-10-16T16:11:12.596Z,11.93
2022-10-16T16:13:41.050Z,12.85
2022-10-16T16:16:13.425Z,14.48
2022-10-16T16:18:41.073Z,13.30
2022-10-16T16:21:08.870Z,14.88
2022-10-16T16:23:36.214Z,15.57
2022-10-16T16:26:15.461Z,11.95
2022-10-16T16:28:44.086Z,13.45
2022-10-16T16:31:11.331Z,11.05
2022-10-16T16:33:38.403Z,14.90
2022-10-16T16:36:11.513Z,17.48
2022-10-16T16:38:41.667Z,13.95
2022-10-16T16:41:26.821Z,11.40
2022-10-16T16:43:55.528Z,11.95
2022-10-16T16:46:22.952Z,15.38
2022-10-16T16:48:54.525Z,13.75
2022-10-16T16:51:21.556Z,15.88
2022-10-16T16:53:51.814Z,17.35
2022-10-16T16:56:20.093Z,14.77
2022-10-16T16:58:51.173Z,16.98
2022-10-16T17:01:20.678Z,14.10
2022-10-16T17:03:52.768Z,19.45
2022-10-16T17:06:22.988Z,13.68
2022-10-16T17:08:50.964Z,11.85
2022-10-16T17:11:22.851Z,12.85
2022-10-16T17:13:56.457Z,16.98
2022-10-16T17:16:32.249Z,12.52
2022-10-16T17:19:06.157Z,15.20
2022-10-16T17:21:33.485Z,16.08
2022-10-16T17:24:01.607Z,15.40
2022-10-16T17:26:29.208Z,16.92
2022-10-16T17:28:59.616Z,18.10
2022-10-16T17:31:33.901Z,25.33
2022-10-16T17:34:04.646Z,19.95
2022-10-16T17:36:35.020Z,19.20
2022-10-16T17:39:09.078Z,14.38
2022-10-16T17:41:36.913Z,18.50
2022-10-16T17:44:05.380Z,16.73
2022-10-16T17:46:36.953Z,17.98
2022-10-16T17:49:07.217Z,14.32
2022-10-16T17:51:34.231Z,17.05
2022-10-16T17:54:02.648Z,18.75
2022-10-16T17:56:31.274Z,15.77
2022-10-16T17:59:01.774Z,20.42
2022-10-16T18:01:32.573Z,15.52
2022-10-16T18:04:07.436Z,18.13
2022-10-16T18:06:35.363Z,17.65
2022-10-16T18:09:04.393Z,17.60
2022-10-16T18:11:31.612Z,15.68
2022-10-16T18:14:00.257Z,16.33
2022-10-16T18:16:30.436Z,14.55
2022-10-16T18:18:59.050Z,15.23
2022-10-16T18:21:28.002Z,15.70
2022-10-16T18:23:55.439Z,19.77
2022-10-16T18:26:23.645Z,20.60
2022-10-16T18:28:55.952Z,16.30
2022-10-16T18:31:23.745Z,15.38
2022-10-16T18:33:51.471Z,20.45
2022-10-16T18:36:32.380Z,16.80
2022-10-16T18:39:01.024Z,16.23
2022-10-16T18:41:29.208Z,19.20
2022-10-16T18:43:56.483Z,17.30
2022-10-16T18:46:25.453Z,18.20
2022-10-16T18:48:54.332Z,15.98
2022-10-16T18:51:31.320Z,17.65
2022-10-16T18:54:04.985Z,21.17
2022-10-16T18:56:32.813Z,19.80
2022-10-16T18:59:02.458Z,20.17
2022-10-16T19:01:32.657Z,21.40
2022-10-16T19:04:07.205Z,15.80
2022-10-16T19:06:42.834Z,19.58
2022-10-16T19:09:10.987Z,22.80
2022-10-16T19:11:41.619Z,22.58
2022-10-16T19:14:10.489Z,22.65
2022-10-16T19:16:38.127Z,20.30
2022-10-16T19:19:08.857Z,17.88
2022-10-16T19:21:39.747Z,16.67
2022-10-16T19:24:08.302Z,20.58
2022-10-16T19:26:38.114Z,18.80
2022-10-16T19:29:09.221Z,18.77
2022-10-16T19:31:36.550Z,21.30
2022-10-16T19:34:06.760Z,21.25
2022-10-16T19:36:38.422Z,20.55
2022-10-16T19:39:13.511Z,21.60
2022-10-16T19:41:41.257Z,18.98
2022-10-16T19:44:13.162Z,21.42
2022-10-16T19:46:40.065Z,27.38
2022-10-16T19:49:12.351Z,21.45
2022-10-16T19:51:40.291Z,19.30
2022-10-16T19:54:11.981Z,24.48
2022-10-16T19:56:39.233Z,23.08
2022-10-16T19:59:08.779Z,19.17
2022-10-16T20:01:35.850Z,26.02
2022-10-16T20:04:02.804Z,19.60
2022-10-16T20:06:29.741Z,19.98
2022-10-16T20:08:58.321Z,23.38
2022-10-16T20:11:29.276Z,19.60
2022-10-16T20:13:56.996Z,26.00
2022-10-16T20:16:24.691Z,21.00
2022-10-16T20:18:52.819Z,21.85
2022-10-16T20:21:27.024Z,28.02
2022-10-16T20:23:54.093Z,24.35
2022-10-16T20:26:25.911Z,21.92
2022-10-16T20:28:54.428Z,19.85
2022-10-16T20:31:28.276Z,24.33
2022-10-16T20:33:57.662Z,24.55
2022-10-16T20:36:26.805Z,23.92
2022-10-16T20:38:54.256Z,23.55
2022-10-16T20:41:22.604Z,24.45
2022-10-16T20:43:52.283Z,22.50
2022-10-16T20:46:23.538Z,23.20
2022-10-16T20:48:52.496Z,24.88
2022-10-16T20:51:26.225Z,23.92
2022-10-16T20:54:04.309Z,19.63
2022-10-16T20:56:33.991Z,25.17
2022-10-16T20:59:01.103Z,20.73
2022-10-16T21:01:31.057Z,21.10
2022-10-16T21:04:02.033Z,23.63
2022-10-16T21:06:31.696Z,19.40
2022-10-16T21:09:02.941Z,23.35
2022-10-16T21:11:33.814Z,24.08
2022-10-16T21:14:03.659Z,23.60
2022-10-16T21:16:31.894Z,22.67
2022-10-16T21:18:58.991Z,24.25
2022-10-16T21:21:33.022Z,20.67
2022-10-16T21:24:00.902Z,21.85
2022-10-16T21:26:30.210Z,25.85
2022-10-16T21:28:59.397Z,22.90
2022-10-16T21:31:27.295Z,20.50
2022-10-16T21:33:55.433Z,23.08
2022-10-16T21:36:32.124Z,28.10
2022-10-16T21:39:06.297Z,24.70
2022-10-16T21:41:34.397Z,23.02
2022-10-16T21:44:02.261Z,26.88
2022-10-16T21:46:33.174Z,23.67
2022-10-16T21:49:02.932Z,21.30
2022-10-16T21:51:34.297Z,19.60
2022-10-16T21:54:03.464Z,21.98
2022-10-16T21:56:30.674Z,20.48
2022-10-16T21:58:58.018Z,23.15
2022-10-16T22:01:27.500Z,32.42
2022-10-16T22:03:55.267Z,22.65
2022-10-16T22:06:25.615Z,23.63
2022-10-16T22:08:56.255Z,20.92
2022-10-16T22:11:36.959Z,18.63
2022-10-16T22:14:09.686Z,22.38
2022-10-16T22:16:37.452Z,22.55
2022-10-16T22:19:07.446Z,23.17
2022-10-16T22:21:40.241Z,26.02
2022-10-16T22:24:07.966Z,21.15
2022-10-16T22:26:36.191Z,22.33
2022-10-16T22:29:03.948Z,25.05
2022-10-16T22:31:31.001Z,22.33
2022-10-16T22:34:03.403Z,23.05
2022-10-16T22:36:31.498Z,26.27
2022-10-16T22:38:59.343Z,19.75
2022-10-16T22:41:26.720Z,27.65
2022-10-16T22:43:53.979Z,23.88
2022-10-16T22:46:27.461Z,22.42
2022-10-16T22:48:55.983Z,22.10
2022-10-16T22:51:25.063Z,24.55
2022-10-16T22:53:52.072Z,19.73
2022-10-16T22:56:20.985Z,23.05
2022-10-16T22:58:47.990Z,23.33
2022-10-16T23:01:31.182Z,20.58
2022-10-16T23:03:58.265Z,25.90
2022-10-16T23:06:25.402Z,21.35
2022-10-16T23:08:55.685Z,22.35
2022-10-16T23:11:23.319Z,24.15
2022-10-16T23:13:50.693Z,23.40
2022-10-16T23:16:20.287Z,22.45
2022-10-16T23:18:48.525Z,22.52
2022-10-16T23:21:22.578Z,22.67
2022-10-16T23:23:51.208Z,21.98
2022-10-16T23:26:26.522Z,23.60
2022-10-16T23:28:56.062Z,26.65
2022-10-16T23:31:23.166Z,23.20
2022-10-16T23:33:50.178Z,20.48
2022-10-16T23:36:20.423Z,24.88
2022-10-16T23:38:48.917Z,22.60
2022-10-16T23:41:17.274Z,20.77
2022-10-16T23:43:44.267Z,21.27
2022-10-16T23:46:12.887Z,21.98
2022-10-16T23:48:40.606Z,21.38
2022-10-16T23:51:10.051Z,20.95
2022-10-16T23:53:37.632Z,22.85
2022-10-16T23:56:05.256Z,22.90
2022-10-16T23:58:32.225Z,21.77
